Airport View

Enter AWOS ICAO identifier for current METAR.

ex. KFNL

KAID 191316Z AUTO 20016G20KT 10SM CLR 23/17 A2978 RMK AO2 T02260171

19 May 2019 13:14

Frequency: 128.55

Phone: 765-378-1510

Other Area AWOS: KMIE - KMQJ - KMZZ - KTYQ

TAF KIND 191125Z 1912/2018 19014G22KT P6SM VCSH BKN100 FM191500 19020G30KT 6SM SHRA BR OVC027 TEMPO 1915/1919 2SM TS BR OVC015CB FM192100 21018G30KT P6SM VCSH BKN040 FM200400 23010KT P6SM BKN080 FM201100 28010KT P6SM SCT050